Time;durP1;ratioP1;P1;durP2;ratioP2;P2;SDS_P1;SDS_P2;PMS_P1;PMS_P2;Temp;Humidity;BMP_temperature;BMP_pressure;BME280_temperature;BME280_humidity;BME280_pressure;Samples;Min_cycle;Max_cycle;Signal;HPM_P1;HPM_P2
2021/08/23 00:00:52;;;;;;;2.77;2.57;;;;;;;25.19;46.69;98717.09;4993149;28;20553;-59
2021/08/23 00:03:18;;;;;;;4.13;2.97;;;;;;;25.19;46.73;98716.25;4993422;28;20191;-59
2021/08/23 00:05:45;;;;;;;2.83;2.60;;;;;;;25.17;46.77;98716.47;4992900;28;20192;-59
2021/08/23 00:08:11;;;;;;;2.90;2.60;;;;;;;25.12;46.85;98716.22;4992902;28;20191;-59
2021/08/23 00:10:38;;;;;;;2.60;2.40;;;;;;;25.12;47.14;98710.09;4995095;28;20218;-59
2021/08/23 00:13:05;;;;;;;2.93;2.63;;;;;;;25.11;47.18;98717.25;4996435;28;20203;-59
2021/08/23 00:15:32;;;;;;;2.67;2.47;;;;;;;25.11;46.94;98714.59;4996696;28;20196;-59
2021/08/23 00:17:59;;;;;;;2.97;2.77;;;;;;;25.09;47.13;98719.31;4996339;28;20196;-59
2021/08/23 00:20:41;;;;;;;3.67;3.00;;;;;;;25.11;46.97;98719.91;4994939;28;20199;-59
2021/08/23 00:23:13;;;;;;;3.30;2.97;;;;;;;25.08;47.33;98720.31;4996201;28;20176;-59
2021/08/23 00:25:40;;;;;;;2.93;2.57;;;;;;;25.10;47.09;98718.28;4996713;28;20179;-59
2021/08/23 00:28:08;;;;;;;2.53;2.33;;;;;;;25.10;46.85;98712.94;4996248;28;20199;-59
2021/08/23 00:30:38;;;;;;;2.70;2.50;;;;;;;25.15;47.01;98715.03;4995909;28;20215;-59
2021/08/23 00:33:05;;;;;;;2.77;2.57;;;;;;;25.13;47.11;98715.22;4996014;28;20187;-59
2021/08/23 00:35:31;;;;;;;3.63;2.53;;;;;;;25.12;46.72;98716.22;4996234;28;20198;-59
2021/08/23 00:37:59;;;;;;;2.27;2.10;;;;;;;25.05;47.12;98710.84;4995908;28;20183;-59
2021/08/23 00:40:26;;;;;;;2.50;2.30;;;;;;;25.05;46.97;98707.38;4996328;28;20238;-59
2021/08/23 00:42:53;;;;;;;3.13;2.80;;;;;;;25.04;47.05;98711.88;4995788;28;20207;-59
2021/08/23 00:45:20;;;;;;;2.67;2.47;;;;;;;25.05;47.43;98710.03;4996152;28;20191;-59
2021/08/23 00:47:48;;;;;;;2.80;2.60;;;;;;;25.05;46.91;98699.38;4995793;28;20196;-59
2021/08/23 00:50:15;;;;;;;2.63;2.43;;;;;;;25.04;47.30;98703.06;4996085;28;20218;-59
2021/08/23 00:52:42;;;;;;;2.60;2.40;;;;;;;25.02;46.96;98703.25;4995573;28;20218;-59
2021/08/23 00:55:09;;;;;;;3.57;2.40;;;;;;;25.04;46.93;98703.06;4995619;28;20195;-59
2021/08/23 00:57:39;;;;;;;2.83;2.53;;;;;;;24.97;47.27;98700.34;4995501;28;20563;-59
2021/08/23 01:00:06;;;;;;;2.70;2.50;;;;;;;24.93;47.11;98710.59;4995795;28;20239;-59
2021/08/23 01:02:43;;;;;;;2.50;2.30;;;;;;;24.95;47.03;98703.22;4995375;28;20229;-59
2021/08/23 01:05:26;;;;;;;3.67;2.50;;;;;;;24.94;47.11;98714.91;4995407;28;20190;-59
2021/08/23 01:08:19;;;;;;;2.23;2.03;;;;;;;24.94;47.37;98709.56;4995398;28;20182;-59
2021/08/23 01:10:49;;;;;;;2.97;2.30;;;;;;;24.94;46.98;98701.56;4989822;28;20325;-59
2021/08/23 01:13:20;;;;;;;2.70;2.50;;;;;;;25.01;47.02;98703.44;4995420;28;20542;-59
2021/08/23 01:15:46;;;;;;;2.30;2.10;;;;;;;25.01;46.77;98709.59;4995153;28;20218;-59
2021/08/23 01:18:13;;;;;;;2.23;2.03;;;;;;;25.04;47.03;98703.88;4995164;28;20241;-59
2021/08/23 01:20:42;;;;;;;4.03;2.27;;;;;;;25.01;47.18;98711.44;4993383;28;20187;-59
2021/08/23 01:23:10;;;;;;;2.80;2.60;;;;;;;24.99;47.19;98713.50;4994715;28;20191;-59
2021/08/23 01:25:39;;;;;;;2.83;2.20;;;;;;;25.03;46.82;98712.09;4994993;28;20654;-58
2021/08/23 01:28:17;;;;;;;2.10;1.90;;;;;;;25.05;46.97;98712.72;4995047;28;20626;-59
2021/08/23 01:30:59;;;;;;;2.50;2.30;;;;;;;25.04;46.94;98716.41;4995067;28;20203;-58
2021/08/23 01:33:26;;;;;;;2.30;2.10;;;;;;;25.02;46.83;98710.44;4994883;28;20183;-59
2021/08/23 01:35:53;;;;;;;2.47;2.27;;;;;;;25.00;46.94;98707.97;4994849;28;20191;-59
2021/08/23 01:38:20;;;;;;;2.47;2.27;;;;;;;24.99;46.93;98718.81;4994996;28;20192;-59
2021/08/23 01:40:46;;;;;;;2.43;2.00;;;;;;;25.00;46.73;98707.97;4995025;28;20187;-59
2021/08/23 01:43:13;;;;;;;2.30;2.10;;;;;;;24.98;46.90;98702.00;4994844;28;20192;-59
2021/08/23 01:45:39;;;;;;;2.47;2.27;;;;;;;25.02;46.95;98699.78;4994820;28;20198;-59
2021/08/23 01:48:06;;;;;;;2.33;2.13;;;;;;;25.02;46.94;98699.78;4994544;28;20191;-59
2021/08/23 01:50:32;;;;;;;2.10;1.90;;;;;;;24.99;47.06;98692.97;4994319;28;20211;-59
2021/08/23 01:52:59;;;;;;;2.17;1.97;;;;;;;24.97;46.78;98697.69;4994954;28;20188;-59
2021/08/23 01:55:25;;;;;;;2.40;2.20;;;;;;;25.01;46.89;98698.09;4994654;28;20654;-59
2021/08/23 01:57:52;;;;;;;2.10;2.00;;;;;;;25.04;46.75;98708.41;4994439;28;20554;-59
2021/08/23 02:00:19;;;;;;;2.23;2.03;;;;;;;25.02;46.71;98708.59;4994844;28;20206;-59
2021/08/23 02:02:45;;;;;;;2.60;2.40;;;;;;;25.03;46.87;98701.41;4992969;28;20223;-59
2021/08/23 02:05:13;;;;;;;2.70;2.30;;;;;;;25.00;46.57;98699.13;4994249;28;20199;-60
2021/08/23 02:07:40;;;;;;;2.30;2.10;;;;;;;25.02;46.64;98695.25;4994232;28;20191;-59
2021/08/23 02:10:07;;;;;;;2.20;2.00;;;;;;;25.03;46.60;98698.75;4994139;28;20223;-59
2021/08/23 02:12:33;;;;;;;2.37;2.17;;;;;;;24.98;46.64;98701.16;4994152;28;20574;-59
2021/08/23 02:15:00;;;;;;;2.47;2.27;;;;;;;24.93;46.74;98699.91;4994017;28;20207;-59
2021/08/23 02:17:26;;;;;;;2.40;2.20;;;;;;;24.94;46.89;98698.91;4992752;28;20649;-59
2021/08/23 02:19:53;;;;;;;2.20;2.07;;;;;;;24.98;46.69;98702.00;4994240;28;20189;-59
2021/08/23 02:22:19;;;;;;;2.40;2.20;;;;;;;25.03;46.49;98699.56;4993893;28;20234;-59
2021/08/23 02:24:46;;;;;;;2.57;2.37;;;;;;;25.03;46.47;98715.56;4994372;28;20191;-59
2021/08/23 02:27:13;;;;;;;2.60;2.20;;;;;;;25.00;46.49;98705.28;4993905;28;20198;-59
2021/08/23 02:29:40;;;;;;;2.43;2.23;;;;;;;24.99;46.63;98708.97;4994310;28;20682;-59
2021/08/23 02:32:07;;;;;;;2.20;2.00;;;;;;;25.00;46.54;98699.13;4993474;28;20214;-58
2021/08/23 02:34:33;;;;;;;2.77;2.07;;;;;;;25.01;46.72;98706.09;4994227;28;20198;-59
2021/08/23 02:37:00;;;;;;;2.40;2.20;;;;;;;25.00;46.77;98697.28;4993816;28;20242;-59
2021/08/23 02:39:26;;;;;;;2.43;2.23;;;;;;;25.01;46.52;98703.44;4993692;28;20262;-59
2021/08/23 02:41:54;;;;;;;2.30;2.10;;;;;;;24.99;46.62;98705.47;4993600;28;20215;-59
2021/08/23 02:44:21;;;;;;;2.30;2.00;;;;;;;24.97;46.83;98715.53;4994148;28;20206;-59
2021/08/23 02:46:48;;;;;;;2.10;2.00;;;;;;;24.95;46.88;98713.09;4993826;28;20662;-59
2021/08/23 02:49:16;;;;;;;2.10;1.90;;;;;;;24.95;46.65;98716.56;4992302;28;20210;-59
2021/08/23 02:51:46;;;;;;;2.07;1.97;;;;;;;24.95;46.54;98708.56;4993468;28;20626;-59
2021/08/23 02:54:13;;;;;;;3.07;2.20;;;;;;;24.95;46.67;98711.22;4993585;28;20195;-60
2021/08/23 02:56:39;;;;;;;1.80;1.70;;;;;;;24.95;46.71;98713.88;4993461;28;20210;-60
2021/08/23 02:59:06;;;;;;;2.20;1.87;;;;;;;24.95;46.73;98713.88;4993385;28;20677;-61
2021/08/23 03:01:32;;;;;;;1.87;1.77;;;;;;;24.97;46.52;98703.03;4993551;28;20215;-61
2021/08/23 03:03:59;;;;;;;3.23;2.10;;;;;;;24.96;46.73;98698.72;4993545;28;20198;-60
2021/08/23 03:06:26;;;;;;;1.90;1.80;;;;;;;24.97;46.82;98704.84;4992238;28;20199;-60
2021/08/23 03:08:52;;;;;;;2.20;2.10;;;;;;;24.95;46.60;98705.88;4993407;28;20187;-59
2021/08/23 03:11:19;;;;;;;2.27;2.10;;;;;;;24.98;46.63;98695.81;4993275;28;20219;-59
2021/08/23 03:13:46;;;;;;;1.80;1.70;;;;;;;24.98;46.69;98703.84;4993228;28;20207;-61
2021/08/23 03:16:13;;;;;;;2.60;2.10;;;;;;;24.95;46.76;98721.09;4992080;28;20187;-59
2021/08/23 03:18:40;;;;;;;2.40;2.20;;;;;;;24.94;46.71;98709.56;4992172;28;20223;-60
2021/08/23 03:21:06;;;;;;;2.30;2.10;;;;;;;24.95;46.57;98711.22;4993359;28;20748;-59
2021/08/23 03:23:33;;;;;;;2.93;1.80;;;;;;;24.98;46.49;98703.84;4993570;28;20693;-60
2021/08/23 03:26:01;;;;;;;2.53;2.10;;;;;;;24.98;46.59;98712.69;4993353;28;20558;-60
2021/08/23 03:28:28;;;;;;;2.43;1.97;;;;;;;25.02;46.33;98713.13;4993226;28;20191;-59
2021/08/23 03:30:55;;;;;;;2.10;1.90;;;;;;;25.01;46.14;98706.09;4993286;28;20225;-59
2021/08/23 03:33:22;;;;;;;1.93;1.83;;;;;;;25.00;46.44;98710.63;4993185;28;20229;-60
2021/08/23 03:35:48;;;;;;;2.23;2.03;;;;;;;25.02;46.13;98710.44;4993293;28;20195;-59
2021/08/23 03:38:15;;;;;;;2.20;2.00;;;;;;;24.99;46.30;98702.81;4993618;28;20670;-59
2021/08/23 03:40:41;;;;;;;2.23;2.03;;;;;;;25.00;46.54;98704.44;4992997;28;20183;-59
2021/08/23 03:43:08;;;;;;;2.17;1.97;;;;;;;24.99;46.46;98694.78;4993082;28;20188;-59
2021/08/23 03:45:35;;;;;;;2.30;2.10;;;;;;;24.97;46.25;98703.03;4995168;28;20187;-59
2021/08/23 03:48:02;;;;;;;2.00;1.90;;;;;;;25.01;46.51;98698.94;4995493;28;20199;-60
2021/08/23 03:50:29;;;;;;;1.83;1.70;;;;;;;25.08;46.35;98693.63;4995732;28;20219;-59
2021/08/23 03:52:56;;;;;;;2.10;1.90;;;;;;;25.08;46.05;98694.44;4996710;28;20188;-59
2021/08/23 03:55:23;;;;;;;2.10;1.87;;;;;;;25.07;46.25;98705.31;4996950;28;20196;-60
2021/08/23 03:57:49;;;;;;;2.00;1.90;;;;;;;24.98;46.47;98703.84;4996744;28;20191;-59
2021/08/23 04:00:16;;;;;;;2.10;2.00;;;;;;;24.92;46.61;98711.63;5011692;28;20192;-59
2021/08/23 04:02:45;;;;;;;2.50;1.80;;;;;;;24.89;46.38;98705.84;4996495;28;20294;-60
2021/08/23 04:05:12;;;;;;;2.17;1.90;;;;;;;24.88;46.57;98706.88;4996534;28;20218;-60
2021/08/23 04:07:38;;;;;;;2.00;1.90;;;;;;;24.87;46.51;98706.06;4996707;28;20556;-59
2021/08/23 04:10:06;;;;;;;2.07;1.90;;;;;;;24.84;46.85;98709.09;4996356;28;20238;-59
2021/08/23 04:12:32;;;;;;;1.97;1.80;;;;;;;24.82;46.64;98711.13;4996277;28;20225;-59
2021/08/23 04:15:00;;;;;;;2.03;1.83;;;;;;;24.78;46.88;98710.72;4994981;28;20203;-59
2021/08/23 04:17:26;;;;;;;2.53;1.87;;;;;;;24.79;46.82;98712.38;4996290;28;20210;-59
2021/08/23 04:19:53;;;;;;;2.00;1.80;;;;;;;24.79;46.71;98711.53;4996260;28;20269;-59
2021/08/23 04:22:20;;;;;;;2.07;1.97;;;;;;;24.78;46.73;98718.72;4996084;28;20211;-59
2021/08/23 04:24:46;;;;;;;2.17;2.00;;;;;;;24.79;46.70;98712.38;4996648;28;20195;-59
2021/08/23 04:27:12;;;;;;;2.13;2.00;;;;;;;24.81;46.87;98709.50;4996409;28;20577;-59
2021/08/23 04:29:39;;;;;;;2.00;1.80;;;;;;;24.83;46.59;98722.66;4996004;28;20195;-60
2021/08/23 04:32:06;;;;;;;2.10;1.90;;;;;;;24.82;46.86;98724.47;4995925;28;20226;-59
2021/08/23 04:34:33;;;;;;;1.90;1.73;;;;;;;24.83;46.70;98723.47;4996472;28;20192;-59
2021/08/23 04:37:03;;;;;;;2.33;2.13;;;;;;;24.83;46.60;98718.13;4995954;28;20658;-59
2021/08/23 04:39:34;;;;;;;1.83;1.73;;;;;;;24.86;46.44;98722.25;4996371;28;20172;-59
2021/08/23 04:42:01;;;;;;;2.00;1.90;;;;;;;24.87;46.70;98722.06;4995877;28;20211;-59
2021/08/23 04:44:27;;;;;;;1.63;1.53;;;;;;;24.82;46.84;98716.47;4995749;28;20199;-59
2021/08/23 04:46:54;;;;;;;2.30;1.77;;;;;;;24.83;46.75;98728.00;4995914;28;20218;-60
2021/08/23 04:49:21;;;;;;;2.20;2.10;;;;;;;24.78;46.88;98732.06;4996028;28;20555;-60
2021/08/23 04:51:47;;;;;;;1.93;1.70;;;;;;;24.78;46.82;98726.75;4994353;28;20690;-60
2021/08/23 04:54:14;;;;;;;2.10;1.90;;;;;;;24.77;46.84;98724.25;4995666;28;20188;-60
2021/08/23 04:56:40;;;;;;;1.90;1.80;;;;;;;24.80;46.71;98731.88;4994115;28;20209;-60
2021/08/23 04:59:07;;;;;;;1.80;1.70;;;;;;;24.83;46.60;98728.81;4995577;28;20192;-60
2021/08/23 05:01:33;;;;;;;2.03;1.70;;;;;;;24.87;46.69;98734.56;4995538;28;20215;-60
2021/08/23 05:04:00;;;;;;;2.23;2.10;;;;;;;24.84;46.73;98730.44;4995613;28;20191;-60
2021/08/23 05:06:26;;;;;;;2.03;1.93;;;;;;;24.86;46.57;98731.09;4995737;28;20246;-60
2021/08/23 05:08:54;;;;;;;2.10;2.00;;;;;;;24.85;46.42;98728.63;4994117;28;20227;-60
2021/08/23 05:11:20;;;;;;;2.10;1.90;;;;;;;24.88;46.44;98736.22;4994039;28;20690;-61
2021/08/23 05:13:47;;;;;;;1.77;1.67;;;;;;;24.88;46.34;98739.72;4995345;28;20190;-60
2021/08/23 05:16:14;;;;;;;2.13;1.93;;;;;;;24.89;46.39;98738.72;4995589;28;20194;-60
2021/08/23 05:18:40;;;;;;;1.70;1.60;;;;;;;24.90;46.19;98731.50;4995212;28;20195;-60
2021/08/23 05:21:07;;;;;;;2.07;1.97;;;;;;;24.91;46.36;98728.66;4995196;28;20207;-60
2021/08/23 05:23:33;;;;;;;2.13;1.90;;;;;;;24.91;46.18;98736.66;4995644;28;20650;-60
2021/08/23 05:26:00;;;;;;;1.80;1.70;;;;;;;24.91;46.16;98728.66;4995125;28;20210;-60
2021/08/23 05:28:31;;;;;;;2.00;1.83;;;;;;;24.91;46.24;98731.31;4995178;28;20258;-60
2021/08/23 05:30:58;;;;;;;2.40;1.80;;;;;;;24.92;46.31;98735.63;4995200;28;20219;-60
2021/08/23 05:33:24;;;;;;;1.93;1.73;;;;;;;24.88;46.51;98737.06;4994959;28;20207;-60
2021/08/23 05:35:51;;;;;;;1.83;1.73;;;;;;;24.87;46.58;98740.75;4994959;28;20191;-60
2021/08/23 05:38:17;;;;;;;1.77;1.67;;;;;;;24.87;46.54;98737.25;4993685;28;20218;-60
2021/08/23 05:40:44;;;;;;;3.40;2.10;;;;;;;24.87;46.27;98734.56;4994969;28;20184;-60
2021/08/23 05:43:11;;;;;;;2.40;1.90;;;;;;;24.85;46.57;98736.63;4994820;28;20184;-60
2021/08/23 05:45:37;;;;;;;2.07;1.83;;;;;;;24.85;46.28;98733.94;4995045;28;20218;-60
2021/08/23 05:48:04;;;;;;;1.93;1.80;;;;;;;24.87;46.30;98732.75;4994775;28;20199;-60
2021/08/23 05:50:30;;;;;;;2.00;1.90;;;;;;;24.87;46.41;98735.41;4994633;28;20227;-60
2021/08/23 05:52:57;;;;;;;2.23;1.93;;;;;;;24.88;46.18;98741.56;4994611;28;20597;-60
2021/08/23 05:55:23;;;;;;;2.13;1.90;;;;;;;24.88;46.25;98737.06;4994657;28;20558;-60
2021/08/23 05:57:50;;;;;;;1.90;1.77;;;;;;;24.86;46.38;98738.28;4994610;28;20195;-60
2021/08/23 06:00:19;;;;;;;1.97;1.80;;;;;;;24.84;46.53;98740.31;4994517;28;20219;-60
2021/08/23 06:02:46;;;;;;;2.10;2.00;;;;;;;24.87;46.15;98745.25;4994620;28;20287;-60
2021/08/23 06:05:13;;;;;;;2.03;1.90;;;;;;;24.88;46.32;98747.75;4994410;28;20187;-60
2021/08/23 06:07:40;;;;;;;2.10;1.90;;;;;;;24.87;46.40;98746.09;4994017;28;20199;-60
2021/08/23 06:10:09;;;;;;;2.23;1.97;;;;;;;24.98;46.19;98746.53;4994228;28;20191;-60
2021/08/23 06:12:36;;;;;;;1.83;1.73;;;;;;;24.91;46.29;98750.00;4994511;28;20221;-60
2021/08/23 06:15:03;;;;;;;2.13;1.93;;;;;;;24.92;46.14;98742.81;4994164;28;20200;-60
2021/08/23 06:17:29;;;;;;;1.90;1.80;;;;;;;24.91;46.35;98744.66;4994239;28;20559;-60
2021/08/23 06:19:56;;;;;;;2.53;1.70;;;;;;;24.91;46.30;98742.00;4994725;28;20549;-60
2021/08/23 06:22:22;;;;;;;2.70;1.97;;;;;;;24.92;45.96;98743.66;4994067;28;20697;-60
2021/08/23 06:24:52;;;;;;;2.03;1.80;;;;;;;24.94;46.22;98746.13;4994589;28;20191;-60
2021/08/23 06:27:19;;;;;;;2.17;1.97;;;;;;;24.93;45.96;98742.63;4992822;28;20199;-60
2021/08/23 06:29:46;;;;;;;1.90;1.80;;;;;;;24.93;46.25;98755.16;4994254;28;20191;-60
2021/08/23 06:32:12;;;;;;;2.43;1.90;;;;;;;24.92;46.23;98743.66;4993796;28;20219;-60
2021/08/23 06:34:38;;;;;;;2.10;1.90;;;;;;;24.93;46.22;98742.63;4993729;28;20199;-60
2021/08/23 06:37:05;;;;;;;1.83;1.73;;;;;;;24.95;46.23;98742.44;4993886;28;20238;-60
2021/08/23 06:39:32;;;;;;;1.90;1.80;;;;;;;24.94;46.19;98740.78;4992745;28;20732;-61
2021/08/23 06:41:58;;;;;;;2.30;2.10;;;;;;;24.98;46.10;98741.22;4993933;28;20266;-61
2021/08/23 06:44:25;;;;;;;2.70;2.00;;;;;;;25.05;46.14;98742.09;4993909;28;20191;-60
2021/08/23 06:46:53;;;;;;;5.40;2.23;;;;;;;25.09;46.04;98740.66;4993739;28;20192;-61
2021/08/23 06:49:20;;;;;;;3.90;2.30;;;;;;;25.15;45.57;98747.88;4993689;28;20534;-61
2021/08/23 06:51:46;;;;;;;3.30;2.00;;;;;;;25.17;45.69;98743.19;4993511;28;20744;-60
2021/08/23 06:54:16;;;;;;;1.80;1.70;;;;;;;25.23;45.79;98745.06;4992517;28;20229;-60
2021/08/23 06:56:44;;;;;;;2.00;1.90;;;;;;;25.25;45.56;98746.69;4993638;28;20335;-61
2021/08/23 06:59:10;;;;;;;4.03;2.20;;;;;;;25.34;45.32;98750.84;4994083;28;20187;-60
2021/08/23 07:01:37;;;;;;;2.00;1.90;;;;;;;25.28;45.39;98752.47;4993507;28;20551;-60
2021/08/23 07:04:04;;;;;;;2.67;2.20;;;;;;;25.26;45.64;98756.34;4993403;28;20254;-62
2021/08/23 07:06:31;;;;;;;2.43;2.23;;;;;;;25.21;45.81;98752.44;4992439;28;20192;-61
2021/08/23 07:08:57;;;;;;;5.80;5.27;;;;;;;25.11;46.02;98757.31;4992193;28;20669;-60
2021/08/23 07:11:24;;;;;;;7.30;6.53;;;;;;;24.98;46.53;98758.06;4993889;28;20250;-60
2021/08/23 07:13:51;;;;;;;6.27;5.67;;;;;;;24.84;46.92;98751.78;4993363;28;20208;-61
2021/08/23 07:16:18;;;;;;;7.10;6.40;;;;;;;24.77;47.08;98757.13;4993761;28;20179;-61
2021/08/23 07:18:44;;;;;;;6.53;5.93;;;;;;;24.65;47.43;98756.78;4984416;28;20235;-60
2021/08/23 07:30:24;;;;;;;10.00;7.83;;;;;;;22.19;54.91;98769.22;5072038;28;20542;-63
2021/08/23 07:32:50;;;;;;;8.30;6.70;;;;;;;22.22;54.65;98773.34;5071790;28;20200;-63
2021/08/23 07:35:17;;;;;;;8.90;7.60;;;;;;;22.07;55.12;98765.34;5071656;28;20189;-63
2021/08/23 07:37:47;;;;;;;8.27;7.57;;;;;;;21.87;55.60;98772.94;5071738;28;20188;-63
2021/08/23 07:40:16;;;;;;;8.73;7.87;;;;;;;21.73;56.25;98775.31;5071573;28;20242;-62
2021/08/23 07:42:44;;;;;;;8.13;7.43;;;;;;;21.62;56.58;98767.72;5070701;28;20284;-63
2021/08/23 07:45:14;;;;;;;9.30;8.20;;;;;;;21.58;57.55;98769.06;5071743;28;20205;-62
2021/08/23 07:47:42;;;;;;;8.17;7.37;;;;;;;21.59;57.23;98770.72;5071469;28;20184;-62
2021/08/23 07:50:09;;;;;;;8.73;7.60;;;;;;;21.65;57.13;98773.53;5071330;28;20205;-63
2021/08/23 07:52:36;;;;;;;8.17;7.37;;;;;;;21.66;57.51;98769.06;5071372;28;20202;-63
2021/08/23 07:55:03;;;;;;;8.60;7.53;;;;;;;21.68;57.17;98780.34;5070399;28;20584;-63
2021/08/23 07:57:30;;;;;;;7.67;6.73;;;;;;;21.80;57.04;98771.00;5070384;28;20626;-62
2021/08/23 07:59:58;;;;;;;9.63;6.73;;;;;;;21.80;57.11;98772.81;5071185;28;20189;-62
2021/08/23 08:02:25;;;;;;;6.77;6.17;;;;;;;21.70;57.05;98781.00;5056187;28;20575;-63
2021/08/23 08:04:52;;;;;;;6.47;5.87;;;;;;;21.63;57.50;98777.31;5050386;28;20184;-63
2021/08/23 08:07:18;;;;;;;7.23;5.93;;;;;;;21.59;57.00;98782.19;5049017;28;20204;-63
2021/08/23 08:09:44;;;;;;;6.57;5.97;;;;;;;21.60;56.99;98783.84;5049627;28;20808;-62
2021/08/23 08:12:11;;;;;;;6.67;6.00;;;;;;;21.75;56.91;98783.94;5050724;28;20189;-62
2021/08/23 08:14:37;;;;;;;5.67;5.10;;;;;;;21.59;56.25;98776.03;5051145;28;20191;-62
2021/08/23 08:17:04;;;;;;;5.90;5.40;;;;;;;21.48;57.15;98779.91;5066509;28;20203;-62
2021/08/23 08:19:31;;;;;;;6.33;4.90;;;;;;;21.56;57.13;98783.34;5050856;28;20208;-62
2021/08/23 08:22:03;;;;;;;5.30;4.83;;;;;;;21.73;56.48;98780.63;5050833;28;20204;-62
2021/08/23 08:24:30;;;;;;;5.17;4.67;;;;;;;21.94;56.49;98776.53;5050038;28;20548;-62
2021/08/23 08:26:56;;;;;;;5.67;5.17;;;;;;;22.25;55.84;98778.31;5033235;28;20228;-62
2021/08/23 08:29:23;;;;;;;5.67;5.10;;;;;;;22.57;55.02;98783.59;5031628;28;20216;-63
2021/08/23 08:31:50;;;;;;;7.37;5.37;;;;;;;23.08;54.03;98789.09;5041828;28;20212;-63
2021/08/23 08:34:17;;;;;;;6.33;5.07;;;;;;;23.77;52.45;98788.94;5032445;28;20201;-63
2021/08/23 08:36:44;;;;;;;5.90;5.30;;;;;;;24.32;51.40;98780.53;5045133;28;20202;-62
2021/08/23 08:39:11;;;;;;;6.13;5.40;;;;;;;24.78;50.82;98785.47;5038165;28;20195;-63
2021/08/23 08:41:37;;;;;;;6.10;5.33;;;;;;;25.03;50.05;98794.84;5037371;28;20209;-63
2021/08/23 08:44:04;;;;;;;5.57;5.07;;;;;;;25.17;50.04;98796.59;5036901;28;20207;-63
2021/08/23 08:46:33;;;;;;;7.13;6.20;;;;;;;25.43;49.91;98796.94;5035963;28;20252;-63
2021/08/23 08:49:02;;;;;;;6.07;5.27;;;;;;;25.74;49.09;98801.81;5036057;28;20667;-63
2021/08/23 08:51:30;;;;;;;4.50;4.10;;;;;;;26.00;48.59;98802.91;5020019;28;20190;-63
2021/08/23 08:53:57;;;;;;;4.40;4.10;;;;;;;26.35;47.33;98800.13;5018821;28;20206;-63
2021/08/23 08:56:23;;;;;;;4.70;4.30;;;;;;;27.24;45.82;98808.94;5035919;28;20182;-63
2021/08/23 08:58:50;;;;;;;5.30;3.93;;;;;;;28.08;43.16;98806.34;5051753;28;20199;-63
2021/08/23 09:01:16;;;;;;;5.03;4.30;;;;;;;28.39;43.58;98809.28;5036722;28;20193;-63
2021/08/23 09:03:45;;;;;;;4.83;3.73;;;;;;;29.77;40.48;98799.44;5031829;28;20253;-63
2021/08/23 09:06:12;;;;;;;3.90;3.60;;;;;;;28.93;41.09;98806.16;5016076;28;20199;-63
2021/08/23 09:08:48;;;;;;;3.97;3.47;;;;;;;27.97;43.59;98809.69;5034191;28;20197;-64
2021/08/23 09:11:17;;;;;;;4.17;3.77;;;;;;;27.62;44.03;98814.41;5034394;28;20190;-63
2021/08/23 09:14:04;;;;;;;4.90;3.80;;;;;;;28.47;42.82;98809.00;5035248;28;20190;-63
2021/08/23 09:16:33;;;;;;;3.87;3.47;;;;;;;27.67;44.34;98821.00;5036669;28;20490;-63
2021/08/23 09:19:00;;;;;;;6.67;3.90;;;;;;;26.75;46.69;98822.56;5036660;28;20630;-63
2021/08/23 09:21:33;;;;;;;4.37;3.97;;;;;;;25.88;49.22;98826.72;5036547;28;20198;-63
2021/08/23 09:24:00;;;;;;;4.97;3.90;;;;;;;25.19;49.83;98834.59;5036561;28;20193;-63
2021/08/23 09:26:34;;;;;;;4.30;4.00;;;;;;;24.93;50.47;98825.38;5036988;28;20614;-63
2021/08/23 09:29:04;;;;;;;4.57;3.33;;;;;;;24.73;50.37;98830.53;5031283;28;20224;-63
2021/08/23 09:31:35;;;;;;;5.40;3.63;;;;;;;24.74;50.41;98834.03;5011852;28;20390;-63
2021/08/23 09:34:08;;;;;;;5.70;3.67;;;;;;;24.95;49.76;98834.03;5030109;28;20249;-63
2021/08/23 09:36:35;;;;;;;3.90;3.60;;;;;;;25.13;48.98;98837.22;5015177;28;20201;-63
2021/08/23 09:39:17;;;;;;;4.70;3.93;;;;;;;25.57;49.12;98836.09;5015790;28;20187;-63
2021/08/23 09:41:44;;;;;;;5.03;3.90;;;;;;;25.79;49.02;98838.63;5016975;28;20175;-63
2021/08/23 09:44:14;;;;;;;3.97;3.57;;;;;;;25.79;49.07;98839.44;5016362;28;20472;-63
2021/08/23 09:46:43;;;;;;;5.37;3.80;;;;;;;25.86;48.20;98833.31;4998395;28;20201;-63
2021/08/23 09:49:12;;;;;;;3.90;3.60;;;;;;;25.99;48.13;98832.53;5016070;28;20535;-63
2021/08/23 09:51:43;;;;;;;5.50;3.70;;;;;;;26.04;47.72;98838.91;5015113;28;20191;-63
2021/08/23 09:54:14;;;;;;;5.73;3.70;;;;;;;25.93;47.72;98840.34;5015203;28;20199;-63
2021/08/23 09:56:45;;;;;;;3.90;3.50;;;;;;;25.64;48.36;98842.28;5016217;28;20215;-63
2021/08/23 09:59:15;;;;;;;3.93;3.50;;;;;;;25.50;48.24;98846.72;5016287;28;20180;-63
2021/08/23 10:01:43;;;;;;;3.90;3.60;;;;;;;25.34;49.33;98849.69;5016208;28;20197;-63
2021/08/23 10:04:11;;;;;;;3.60;3.30;;;;;;;25.55;49.31;98847.97;5016462;28;20233;-63
2021/08/23 10:06:43;;;;;;;3.53;3.13;;;;;;;25.70;48.83;98859.38;5016135;28;20183;-63
2021/08/23 10:09:11;;;;;;;4.40;3.40;;;;;;;25.78;48.85;98853.03;5016525;28;20210;-63
2021/08/23 10:11:38;;;;;;;3.50;3.20;;;;;;;25.68;48.39;98850.72;5016013;28;20194;-63
2021/08/23 10:14:05;;;;;;;3.83;3.00;;;;;;;25.68;47.66;98850.72;5016215;28;20202;-63
2021/08/23 10:16:35;;;;;;;2.77;2.50;;;;;;;25.73;46.59;98852.78;5016676;28;20187;-63
2021/08/23 10:19:03;;;;;;;5.23;3.37;;;;;;;25.72;46.48;98854.63;5015925;28;20221;-63
2021/08/23 10:21:31;;;;;;;4.57;3.23;;;;;;;25.77;47.22;98851.38;5015832;28;20571;-63
2021/08/23 10:23:59;;;;;;;3.60;3.30;;;;;;;25.88;47.60;98842.75;5016337;28;20195;-63
2021/08/23 10:26:26;;;;;;;4.30;3.70;;;;;;;26.08;47.51;98848.19;5014831;28;20233;-63
2021/08/23 10:28:52;;;;;;;3.40;3.10;;;;;;;26.20;47.83;98844.97;5015806;28;20195;-63
2021/08/23 10:31:21;;;;;;;5.67;3.70;;;;;;;26.28;47.29;98852.78;5015642;28;20191;-63
2021/08/23 10:33:49;;;;;;;3.60;3.30;;;;;;;26.48;46.06;98852.00;5015563;28;20205;-63
2021/08/23 10:36:17;;;;;;;4.43;3.57;;;;;;;26.68;45.69;98856.56;5015598;28;20199;-63
2021/08/23 10:38:47;;;;;;;3.37;3.07;;;;;;;26.76;44.70;98842.94;5016087;28;20195;-63
2021/08/23 10:41:17;;;;;;;4.23;3.20;;;;;;;26.64;44.64;98848.94;5016031;28;20198;-63
2021/08/23 10:43:56;;;;;;;3.33;3.13;;;;;;;26.55;44.50;98852.81;5015997;28;20198;-63
2021/08/23 10:46:33;;;;;;;4.67;3.60;;;;;;;26.51;45.85;98856.94;5014549;28;20539;-63
2021/08/23 10:49:23;;;;;;;3.60;3.30;;;;;;;26.61;46.69;98848.50;5015344;28;20245;-63
2021/08/23 10:51:58;;;;;;;4.43;3.23;;;;;;;26.72;44.53;98847.06;5015269;28;20640;-63
2021/08/23 10:54:34;;;;;;;3.40;3.10;;;;;;;27.09;45.06;98852.03;5015384;28;20181;-63
2021/08/23 10:57:00;;;;;;;3.93;3.20;;;;;;;27.26;44.45;98844.38;5015749;28;20171;-63
2021/08/23 10:59:52;;;;;;;6.97;3.23;;;;;;;27.61;44.75;98852.16;5015785;28;20201;-63
2021/08/23 11:02:34;;;;;;;3.47;3.13;;;;;;;28.46;41.87;98844.94;5015789;28;20498;-63
2021/08/23 11:05:07;;;;;;;3.17;2.93;;;;;;;28.80;42.13;98834.78;5015514;28;20179;-64
2021/08/23 11:07:35;;;;;;;3.47;3.17;;;;;;;29.48;41.14;98834.13;5015216;28;20182;-64
2021/08/23 11:10:08;;;;;;;3.03;2.73;;;;;;;29.57;40.11;98830.09;5015621;28;20207;-63
2021/08/23 11:12:46;;;;;;;5.03;2.70;;;;;;;29.34;41.25;98834.25;5015300;28;20206;-63
2021/08/23 11:15:16;;;;;;;3.20;2.90;;;;;;;28.82;42.23;98827.31;5015741;28;20206;-64
2021/08/23 11:17:45;;;;;;;2.83;2.63;;;;;;;28.79;40.70;98826.91;5015364;28;20480;-63
2021/08/23 11:20:18;;;;;;;3.67;2.73;;;;;;;29.01;39.35;98824.66;5014149;28;20191;-64
2021/08/23 11:23:14;;;;;;;3.27;2.63;;;;;;;28.87;40.88;98822.13;5015287;28;20183;-64
2021/08/23 11:25:43;;;;;;;2.90;2.60;;;;;;;29.38;36.83;98816.66;5014638;28;20202;-63
2021/08/23 11:28:12;;;;;;;3.87;2.83;;;;;;;28.84;38.97;98822.53;5014777;28;20279;-63
2021/08/23 11:30:41;;;;;;;3.27;2.80;;;;;;;29.15;39.02;98817.31;5014783;28;20213;-63
2021/08/23 11:33:10;;;;;;;2.80;2.60;;;;;;;29.17;39.72;98818.72;5014912;28;20221;-63
2021/08/23 11:35:37;;;;;;;3.37;2.73;;;;;;;28.66;41.26;98815.25;5013866;28;20195;-63
2021/08/23 11:38:06;;;;;;;3.07;2.77;;;;;;;28.84;40.86;98819.06;5014753;28;20187;-63
2021/08/23 11:40:35;;;;;;;2.40;2.20;;;;;;;28.94;38.79;98822.03;5014861;28;20198;-63
2021/08/23 11:43:05;;;;;;;4.17;2.87;;;;;;;32.31;32.74;98811.28;5013901;28;20183;-63
2021/08/23 11:45:37;;;;;;;2.70;2.50;;;;;;;31.44;35.21;98814.81;5014713;28;20241;-62
2021/08/23 11:48:05;;;;;;;2.63;2.43;;;;;;;31.95;36.26;98824.16;5015279;28;20176;-64